Time;durP1;ratioP1;P1;durP2;ratioP2;P2;SDS_P1;SDS_P2;PMS_P1;PMS_P2;Temp;Humidity;BMP_temperature;BMP_pressure;BME280_temperature;BME280_humidity;BME280_pressure;Samples;Min_cycle;Max_cycle;Signal;HPM_P1;HPM_P2
2021/07/25 00:00:12;;;;;;;25.20;13.50;;;20.50;88.70;;;;;;5032192;28;20032;-84
2021/07/25 00:02:38;;;;;;;26.63;14.52;;;20.50;88.90;;;;;;5032303;28;20117;-84
2021/07/25 00:05:06;;;;;;;23.75;13.40;;;20.50;89.00;;;;;;5033419;28;20041;-84
2021/07/25 00:07:32;;;;;;;23.38;13.63;;;20.50;89.20;;;;;;5034542;28;20028;-85
2021/07/25 00:09:58;;;;;;;23.63;13.55;;;20.40;89.10;;;;;;5032035;28;20112;-85
2021/07/25 00:12:24;;;;;;;23.70;13.20;;;20.50;89.20;;;;;;5033782;28;20018;-84
2021/07/25 00:14:50;;;;;;;27.77;13.02;;;20.40;89.20;;;;;;5033866;28;20461;-84
2021/07/25 00:17:15;;;;;;;22.45;12.48;;;20.40;89.20;;;;;;5033261;28;20037;-83
2021/07/25 00:19:41;;;;;;;21.50;12.82;;;20.40;89.30;;;;;;5032521;28;20013;-83
2021/07/25 00:22:07;;;;;;;22.45;13.05;;;20.40;89.30;;;;;;5048357;28;20018;-84
2021/07/25 00:24:38;;;;;;;23.70;13.23;;;20.40;89.30;;;;;;5033881;28;20020;-84
2021/07/25 00:27:04;;;;;;;23.27;13.43;;;20.40;89.30;;;;;;5033158;28;20024;-83
2021/07/25 00:29:31;;;;;;;22.95;13.63;;;20.40;89.30;;;;;;5032138;28;20101;-84
2021/07/25 00:32:01;;;;;;;22.05;13.43;;;20.40;89.60;;;;;;5031549;28;20018;-83
2021/07/25 00:34:28;;;;;;;25.85;13.13;;;20.40;89.70;;;;;;5033426;28;20159;-84
2021/07/25 00:36:54;;;;;;;27.35;14.45;;;20.30;89.80;;;;;;5033428;28;20029;-85
2021/07/25 00:39:20;;;;;;;24.98;14.15;;;20.30;89.90;;;;;;5032816;28;20033;-83
2021/07/25 00:41:45;;;;;;;23.83;13.95;;;20.30;90.00;;;;;;5032136;28;20040;-83
2021/07/25 00:44:11;;;;;;;24.85;13.48;;;20.30;90.00;;;;;;5047900;28;20021;-83
2021/07/25 00:46:36;;;;;;;26.77;14.10;;;20.30;90.00;;;;;;5034169;28;20026;-84
2021/07/25 00:49:02;;;;;;;26.90;15.13;;;20.30;90.00;;;;;;5037120;28;20408;-84
2021/07/25 00:51:30;;;;;;;31.48;17.10;;;20.30;90.00;;;;;;5039443;28;20069;-84
2021/07/25 00:53:56;;;;;;;20.98;13.70;;;20.30;90.10;;;;;;5038911;28;20018;-84
2021/07/25 00:56:22;;;;;;;27.98;16.75;;;20.30;90.10;;;;;;5036199;28;20095;-84
2021/07/25 00:58:48;;;;;;;26.30;14.90;;;20.30;90.30;;;;;;5048788;28;20021;-85
2021/07/25 01:01:14;;;;;;;25.02;13.70;;;20.20;90.40;;;;;;5043295;28;20027;-85
2021/07/25 01:04:05;;;;;;;25.88;15.70;;;20.20;90.40;;;;;;5050685;28;20049;-86
2021/07/25 01:06:45;;;;;;;22.92;14.13;;;20.20;90.50;;;;;;5048676;28;20029;-85
2021/07/25 01:09:29;;;;;;;25.58;13.68;;;20.10;90.50;;;;;;5047730;28;20029;-84
2021/07/25 01:11:58;;;;;;;25.10;14.88;;;20.10;90.50;;;;;;5032948;28;20450;-84
2021/07/25 01:14:31;;;;;;;24.35;13.50;;;20.10;90.50;;;;;;5032306;28;20017;-84
2021/07/25 01:17:30;;;;;;;20.00;13.40;;;20.10;90.50;;;;;;5032792;28;20021;-85
2021/07/25 01:19:57;;;;;;;24.00;14.23;;;20.10;90.50;;;;;;5031476;28;20448;-84
2021/07/25 01:22:24;;;;;;;23.92;13.18;;;20.10;90.40;;;;;;5031090;28;20022;-84
2021/07/25 01:24:50;;;;;;;26.83;15.00;;;20.10;90.50;;;;;;5032548;28;20096;-84
2021/07/25 01:27:26;;;;;;;24.98;13.75;;;20.10;90.50;;;;;;5030818;28;20071;-84
2021/07/25 01:29:53;;;;;;;22.83;13.07;;;20.10;90.50;;;;;;5035285;28;20025;-84
2021/07/25 01:32:21;;;;;;;22.08;12.40;;;20.10;90.50;;;;;;5033444;28;20017;-86
2021/07/25 01:34:48;;;;;;;23.48;13.43;;;20.10;90.60;;;;;;5037189;28;20127;-85
2021/07/25 01:37:15;;;;;;;21.98;12.88;;;20.10;90.60;;;;;;5034626;28;20024;-84
2021/07/25 01:39:42;;;;;;;24.20;13.07;;;20.10;90.60;;;;;;5032382;28;20029;-84
2021/07/25 01:42:07;;;;;;;22.77;12.13;;;20.10;90.60;;;;;;5030583;28;20018;-84
2021/07/25 01:44:33;;;;;;;22.17;12.15;;;20.10;90.60;;;;;;5032604;28;20017;-84
2021/07/25 01:46:59;;;;;;;23.63;12.52;;;20.10;90.60;;;;;;5031399;28;20017;-84
2021/07/25 01:49:25;;;;;;;19.80;12.85;;;20.10;90.60;;;;;;5031672;28;20410;-84
2021/07/25 01:51:50;;;;;;;23.83;13.38;;;20.10;90.50;;;;;;5031349;28;20029;-84
2021/07/25 01:54:16;;;;;;;25.52;14.18;;;20.10;90.50;;;;;;5034313;28;20051;-84
2021/07/25 01:56:42;;;;;;;24.35;14.23;;;20.10;90.50;;;;;;5039045;28;20026;-84
2021/07/25 01:59:07;;;;;;;23.58;13.60;;;20.10;90.50;;;;;;5041258;28;20429;-84
2021/07/25 02:01:33;;;;;;;22.77;13.25;;;20.10;90.50;;;;;;5036134;28;20021;-85
2021/07/25 02:03:58;;;;;;;24.92;14.20;;;20.10;90.50;;;;;;5041445;28;20101;-84
2021/07/25 02:06:24;;;;;;;28.33;15.50;;;20.10;90.60;;;;;;5048134;28;20468;-84
2021/07/25 02:08:50;;;;;;;26.05;14.60;;;20.10;90.70;;;;;;5031760;28;20029;-84
2021/07/25 02:11:16;;;;;;;26.25;14.45;;;20.00;90.70;;;;;;5031138;28;20025;-83
2021/07/25 02:13:41;;;;;;;23.88;13.32;;;20.00;90.80;;;;;;5030903;28;20087;-84
2021/07/25 02:16:07;;;;;;;24.08;12.40;;;20.00;90.80;;;;;;5032033;28;20017;-83
2021/07/25 02:18:33;;;;;;;22.45;13.43;;;20.00;90.80;;;;;;5040426;28;20036;-83
2021/07/25 02:20:58;;;;;;;22.25;12.50;;;20.00;90.80;;;;;;5064631;28;20588;-84
2021/07/25 02:23:24;;;;;;;21.95;13.52;;;20.00;90.80;;;;;;5030739;28;20167;-84
2021/07/25 02:25:49;;;;;;;24.27;13.35;;;20.00;90.80;;;;;;5031140;28;20453;-84
2021/07/25 02:28:15;;;;;;;21.45;13.25;;;19.90;90.80;;;;;;5033727;28;20044;-84
2021/07/25 02:30:41;;;;;;;19.92;13.13;;;19.90;90.80;;;;;;5051147;28;20022;-84
2021/07/25 02:33:07;;;;;;;23.15;13.88;;;19.90;91.10;;;;;;5050599;28;20117;-83
2021/07/25 02:35:32;;;;;;;25.30;13.95;;;19.90;90.90;;;;;;5034574;28;20030;-84
2021/07/25 02:37:58;;;;;;;21.73;13.15;;;19.90;91.00;;;;;;5034607;28;20030;-84
2021/07/25 02:40:25;;;;;;;26.67;15.38;;;19.80;91.00;;;;;;5034934;28;20261;-83
2021/07/25 02:42:50;;;;;;;26.67;15.05;;;19.80;91.30;;;;;;5035579;28;20059;-83
2021/07/25 02:45:16;;;;;;;24.10;13.95;;;19.70;91.20;;;;;;5035110;28;20021;-84
2021/07/25 02:47:42;;;;;;;26.90;14.43;;;19.70;91.30;;;;;;5051671;28;20021;-84
2021/07/25 02:50:08;;;;;;;23.48;14.23;;;19.80;91.30;;;;;;5035443;28;20057;-84
2021/07/25 02:52:34;;;;;;;24.70;14.75;;;19.80;91.20;;;;;;5034274;28;20071;-84
2021/07/25 02:55:00;;;;;;;24.27;14.20;;;19.80;91.20;;;;;;5035262;28;20049;-84
2021/07/25 02:57:25;;;;;;;25.00;13.90;;;19.70;91.20;;;;;;5034510;28;20034;-84
2021/07/25 02:59:51;;;;;;;23.35;13.57;;;19.80;91.20;;;;;;5034033;28;20484;-84
2021/07/25 03:02:17;;;;;;;27.45;13.57;;;19.80;91.20;;;;;;5049930;28;20021;-84
2021/07/25 03:04:42;;;;;;;22.80;13.93;;;19.80;91.20;;;;;;5034031;28;20022;-83
2021/07/25 03:07:08;;;;;;;22.55;13.60;;;19.80;91.20;;;;;;5033533;28;20017;-84
2021/07/25 03:09:34;;;;;;;19.88;12.75;;;19.80;91.20;;;;;;5034015;28;20356;-83
2021/07/25 03:12:00;;;;;;;21.77;12.50;;;19.80;91.20;;;;;;5035098;28;20064;-83
2021/07/25 03:14:25;;;;;;;24.75;13.90;;;19.80;91.20;;;;;;5034450;28;20105;-84
2021/07/25 03:16:51;;;;;;;24.30;12.98;;;19.70;91.20;;;;;;5033741;28;20060;-84
2021/07/25 03:19:17;;;;;;;21.88;12.77;;;19.70;91.30;;;;;;5032954;28;20377;-84
2021/07/25 03:21:43;;;;;;;22.92;13.35;;;19.70;91.30;;;;;;5034966;28;20485;-84
2021/07/25 03:24:08;;;;;;;20.67;11.27;;;19.70;91.30;;;;;;5032903;28;20009;-81
2021/07/25 03:26:34;;;;;;;21.33;13.18;;;19.70;91.30;;;;;;5034765;28;20075;-84
2021/07/25 03:29:00;;;;;;;22.80;11.55;;;19.70;91.20;;;;;;5034724;28;20064;-84
2021/07/25 03:31:25;;;;;;;25.65;14.02;;;19.70;91.20;;;;;;5034521;28;20388;-84
2021/07/25 03:33:51;;;;;;;23.25;13.23;;;19.70;91.30;;;;;;5034190;28;20112;-83
2021/07/25 03:36:17;;;;;;;21.42;12.77;;;19.60;91.30;;;;;;5052301;28;20017;-83
2021/07/25 03:38:42;;;;;;;25.63;13.75;;;19.60;91.40;;;;;;5059226;28;20495;-84
2021/07/25 03:41:08;;;;;;;21.23;12.20;;;19.60;91.40;;;;;;5053487;28;20505;-84
2021/07/25 03:43:34;;;;;;;22.63;12.75;;;19.60;91.40;;;;;;5033019;28;20020;-84
2021/07/25 03:46:00;;;;;;;22.83;12.63;;;19.60;91.40;;;;;;5033238;28;20116;-83
2021/07/25 03:48:27;;;;;;;24.02;13.57;;;19.60;91.50;;;;;;5032647;28;20021;-83
2021/07/25 03:50:53;;;;;;;23.05;13.00;;;19.60;91.50;;;;;;5034262;28;20022;-84
2021/07/25 03:53:19;;;;;;;24.08;13.65;;;19.60;91.50;;;;;;5033620;28;20037;-85
2021/07/25 03:55:46;;;;;;;24.08;13.45;;;19.60;91.50;;;;;;5032772;28;20041;-84
2021/07/25 03:58:12;;;;;;;21.23;12.18;;;19.60;91.50;;;;;;5032163;28;20076;-84
2021/07/25 04:00:38;;;;;;;27.60;13.52;;;19.60;91.50;;;;;;5034267;28;20025;-84
2021/07/25 04:03:03;;;;;;;23.10;13.15;;;19.60;91.50;;;;;;5033987;28;20026;-85
2021/07/25 04:05:29;;;;;;;23.15;13.35;;;19.50;91.50;;;;;;5033296;28;20450;-84
2021/07/25 04:07:54;;;;;;;21.58;12.95;;;19.50;91.60;;;;;;5034009;28;20028;-85
2021/07/25 04:10:21;;;;;;;21.23;11.93;;;19.50;91.60;;;;;;5032037;28;20029;-84
2021/07/25 04:12:47;;;;;;;21.35;11.95;;;19.50;91.60;;;;;;5032787;28;20021;-84
2021/07/25 04:15:13;;;;;;;21.92;13.07;;;19.50;91.70;;;;;;5048766;28;20021;-84
2021/07/25 04:17:39;;;;;;;22.60;11.85;;;19.40;91.70;;;;;;5032744;28;20022;-85
2021/07/25 04:20:05;;;;;;;23.83;12.10;;;19.50;91.70;;;;;;5032767;28;20126;-84
2021/07/25 04:22:33;;;;;;;20.30;11.27;;;19.40;91.70;;;;;;5031772;28;20022;-84
2021/07/25 04:24:58;;;;;;;18.83;10.82;;;19.50;91.70;;;;;;5032521;28;20021;-85
2021/07/25 04:27:24;;;;;;;21.35;12.80;;;19.50;91.70;;;;;;5032902;28;20361;-84
2021/07/25 04:29:51;;;;;;;22.17;11.75;;;19.40;91.70;;;;;;5033891;28;20021;-84
2021/07/25 04:32:16;;;;;;;20.30;11.60;;;19.40;91.70;;;;;;5033084;28;20022;-84
2021/07/25 04:34:42;;;;;;;21.35;12.50;;;19.50;91.70;;;;;;5033661;28;20017;-84
2021/07/25 04:37:21;;;;;;;19.35;11.82;;;19.40;91.60;;;;;;5032321;28;20171;-84
2021/07/25 04:39:47;;;;;;;20.40;11.68;;;19.50;91.60;;;;;;5032481;28;20025;-84
2021/07/25 04:42:16;;;;;;;18.13;11.10;;;19.50;91.50;;;;;;5032036;28;20148;-80
2021/07/25 04:44:47;;;;;;;20.90;11.88;;;19.50;91.50;;;;;;5032152;28;20438;-84
2021/07/25 04:47:17;;;;;;;;;;;19.50;91.50;;;;;;5049131;28;20083;-80
2021/07/25 04:49:52;;;;;;;20.20;10.48;;;19.50;91.50;;;;;;5047921;28;20297;-84
2021/07/25 04:52:20;;;;;;;17.92;9.45;;;19.50;91.40;;;;;;5038389;28;20031;-82
2021/07/25 04:54:46;;;;;;;16.67;10.77;;;19.60;91.30;;;;;;5048974;28;20547;-84
2021/07/25 04:57:17;;;;;;;16.77;10.25;;;19.60;91.20;;;;;;5033955;28;20416;-84
2021/07/25 04:59:46;;;;;;;22.33;10.40;;;19.60;91.20;;;;;;5032217;28;20047;-84
2021/07/25 05:02:15;;;;;;;18.73;10.77;;;19.60;91.10;;;;;;5048652;28;20029;-84
2021/07/25 05:04:41;;;;;;;19.38;10.38;;;19.70;91.10;;;;;;5031906;28;20018;-84
2021/07/25 05:07:11;;;;;;;15.05;8.80;;;19.70;91.00;;;;;;5033056;28;20028;-84
2021/07/25 05:09:37;;;;;;;19.58;11.40;;;19.80;91.00;;;;;;5032571;28;20078;-84
2021/07/25 05:12:26;;;;;;;18.75;10.07;;;19.70;90.80;;;;;;5032961;28;20061;-83
2021/07/25 05:15:05;;;;;;;13.63;8.60;;;19.70;90.80;;;;;;5033261;28;20017;-84
2021/07/25 05:17:30;;;;;;;17.20;9.10;;;19.70;90.80;;;;;;5031139;28;20067;-83
2021/07/25 05:20:04;;;;;;;16.80;8.77;;;19.70;90.80;;;;;;5031736;28;20025;-83
2021/07/25 05:22:36;;;;;;;14.73;7.72;;;19.60;90.80;;;;;;5031088;28;20151;-84
2021/07/25 05:25:05;;;;;;;15.18;8.18;;;19.60;90.90;;;;;;5031512;28;20025;-85
2021/07/25 05:27:39;;;;;;;16.15;8.65;;;19.60;90.90;;;;;;5030868;28;20568;-84
2021/07/25 05:30:05;;;;;;;14.18;7.95;;;19.60;90.90;;;;;;5031727;28;20025;-85
2021/07/25 05:32:31;;;;;;;14.80;7.95;;;19.60;90.90;;;;;;5031013;28;20365;-84
2021/07/25 05:34:57;;;;;;;14.52;7.65;;;19.50;90.90;;;;;;5031541;28;20028;-84
2021/07/25 05:37:22;;;;;;;13.00;7.85;;;19.50;90.80;;;;;;5030334;28;20029;-84
2021/07/25 05:39:48;;;;;;;12.88;7.35;;;19.60;90.80;;;;;;5035048;28;20022;-84
2021/07/25 05:42:14;;;;;;;13.10;7.72;;;19.50;90.70;;;;;;5035281;28;20456;-84
2021/07/25 05:44:39;;;;;;;14.15;7.43;;;19.50;90.70;;;;;;5033245;28;20454;-85
2021/07/25 05:47:05;;;;;;;13.02;7.55;;;19.50;90.70;;;;;;5034674;28;20072;-85
2021/07/25 05:49:31;;;;;;;11.95;6.15;;;19.60;90.70;;;;;;5030711;28;20029;-84
2021/07/25 05:51:56;;;;;;;12.85;7.00;;;19.60;90.60;;;;;;5032908;28;20369;-84
2021/07/25 05:54:22;;;;;;;10.55;6.07;;;19.60;90.50;;;;;;5030558;28;20069;-85
2021/07/25 05:56:47;;;;;;;11.68;6.57;;;19.70;90.50;;;;;;5039403;28;20036;-84
2021/07/25 05:59:13;;;;;;;9.18;5.47;;;19.70;90.30;;;;;;5040739;28;20454;-84
2021/07/25 06:01:40;;;;;;;11.55;6.38;;;19.80;90.20;;;;;;5050778;28;20042;-84
2021/07/25 06:04:06;;;;;;;11.00;5.68;;;19.90;90.10;;;;;;5037846;28;20026;-84
2021/07/25 06:06:33;;;;;;;11.00;5.80;;;20.00;90.00;;;;;;5037976;28;20013;-85
2021/07/25 06:08:59;;;;;;;9.93;5.72;;;20.10;89.90;;;;;;5045400;28;20029;-84
2021/07/25 06:11:25;;;;;;;13.85;6.50;;;20.10;89.60;;;;;;5040337;28;20029;-84
2021/07/25 06:13:51;;;;;;;13.05;6.90;;;20.10;89.60;;;;;;5035925;28;20028;-85
2021/07/25 06:16:17;;;;;;;12.15;6.13;;;20.10;89.40;;;;;;5035178;28;20029;-84
2021/07/25 06:18:47;;;;;;;17.40;7.13;;;20.20;89.20;;;;;;5035183;28;20017;-84
2021/07/25 06:21:20;;;;;;;11.18;7.00;;;20.20;89.00;;;;;;5036460;28;20180;-84
2021/07/25 06:23:50;;;;;;;11.15;6.55;;;20.20;88.70;;;;;;5035066;28;20464;-84
2021/07/25 06:26:16;;;;;;;10.80;5.25;;;20.30;88.70;;;;;;5035856;28;20453;-84
2021/07/25 06:28:42;;;;;;;9.93;5.65;;;20.30;88.60;;;;;;5034260;28;20396;-83
2021/07/25 06:31:08;;;;;;;11.15;5.82;;;20.40;88.50;;;;;;5034525;28;20017;-84
2021/07/25 06:33:33;;;;;;;10.93;5.22;;;20.40;88.30;;;;;;5034126;28;20429;-83
2021/07/25 06:35:59;;;;;;;9.15;5.35;;;20.50;88.30;;;;;;5034718;28;20091;-84
2021/07/25 06:38:25;;;;;;;9.68;5.28;;;20.50;88.20;;;;;;5033714;28;20014;-84
2021/07/25 06:40:53;;;;;;;9.65;4.70;;;20.60;88.10;;;;;;5035552;28;20033;-84
2021/07/25 06:43:21;;;;;;;11.70;5.30;;;20.60;88.10;;;;;;5034197;28;20437;-84
2021/07/25 06:45:47;;;;;;;9.15;4.55;;;20.50;88.00;;;;;;5033861;28;20017;-83
2021/07/25 06:48:27;;;;;;;11.07;5.75;;;20.50;88.20;;;;;;5035387;28;20075;-84
2021/07/25 06:50:54;;;;;;;9.93;5.93;;;20.40;88.20;;;;;;5034188;28;20035;-84
2021/07/25 06:53:22;;;;;;;11.40;5.20;;;20.40;88.40;;;;;;5034098;28;20099;-84
2021/07/25 06:55:49;;;;;;;8.82;4.80;;;20.30;89.10;;;;;;5033706;28;20037;-84
2021/07/25 06:58:15;;;;;;;9.00;5.22;;;20.30;88.60;;;;;;5035380;28;20061;-84
2021/07/25 07:00:41;;;;;;;10.15;5.50;;;20.30;88.60;;;;;;5032985;28;20032;-84
2021/07/25 07:03:06;;;;;;;8.45;5.20;;;20.30;88.60;;;;;;5038058;28;20017;-84
2021/07/25 07:05:33;;;;;;;8.55;4.70;;;20.30;88.60;;;;;;5035169;28;20022;-84
2021/07/25 07:08:01;;;;;;;8.07;4.50;;;20.30;88.60;;;;;;5050337;28;20350;-84
2021/07/25 07:10:36;;;;;;;8.48;5.03;;;20.40;88.70;;;;;;5034153;28;20018;-84
2021/07/25 07:13:06;;;;;;;5.70;2.97;;;20.40;88.60;;;;;;5034783;28;20029;-84
2021/07/25 07:15:33;;;;;;;9.25;4.18;;;20.40;88.50;;;;;;5034586;28;20454;-84
2021/07/25 07:17:59;;;;;;;7.85;4.03;;;20.40;88.40;;;;;;5049744;28;20032;-84
2021/07/25 07:20:26;;;;;;;8.90;4.93;;;20.40;88.30;;;;;;5049560;28;20479;-84
2021/07/25 07:22:54;;;;;;;7.25;3.53;;;20.50;88.40;;;;;;5050411;28;20024;-84
2021/07/25 07:25:20;;;;;;;7.65;4.43;;;20.50;88.30;;;;;;5037428;28;20075;-84
2021/07/25 07:27:46;;;;;;;8.00;3.90;;;20.50;88.20;;;;;;5054653;28;20047;-84
2021/07/25 07:30:12;;;;;;;10.18;4.10;;;20.50;88.10;;;;;;5050926;28;20124;-84
2021/07/25 07:32:38;;;;;;;10.45;4.40;;;20.50;88.10;;;;;;5049369;28;20029;-83
2021/07/25 07:35:03;;;;;;;6.65;3.83;;;20.60;88.00;;;;;;5034793;28;20025;-84
2021/07/25 07:37:29;;;;;;;8.02;4.13;;;20.60;87.90;;;;;;5034444;28;20140;-84
2021/07/25 07:39:55;;;;;;;8.57;4.70;;;20.60;87.80;;;;;;5033946;28;20029;-84
2021/07/25 07:42:20;;;;;;;9.40;4.38;;;20.70;87.70;;;;;;5036729;28;20021;-84
2021/07/25 07:44:46;;;;;;;7.55;3.70;;;20.70;87.60;;;;;;5054385;28;20445;-85
2021/07/25 07:47:12;;;;;;;8.30;3.72;;;20.80;87.60;;;;;;5042875;28;20031;-84
2021/07/25 07:49:38;;;;;;;7.10;3.47;;;20.80;87.50;;;;;;5036981;28;20104;-85
2021/07/25 07:52:04;;;;;;;5.57;2.78;;;20.80;87.40;;;;;;5037361;28;20449;-85
2021/07/25 07:54:30;;;;;;;8.02;4.38;;;20.80;87.30;;;;;;5034219;28;20021;-85
2021/07/25 07:56:56;;;;;;;7.40;3.60;;;20.90;87.20;;;;;;5034738;28;20046;-84
2021/07/25 07:59:21;;;;;;;8.63;3.45;;;20.90;87.10;;;;;;5034256;28;20162;-85
2021/07/25 08:01:47;;;;;;;8.10;3.78;;;20.90;87.10;;;;;;5048977;28;20025;-85
2021/07/25 08:04:13;;;;;;;7.20;3.47;;;20.90;86.90;;;;;;5049379;28;20513;-85
2021/07/25 08:06:39;;;;;;;5.80;3.22;;;21.00;86.90;;;;;;5033184;28;20049;-85
2021/07/25 08:09:04;;;;;;;7.63;3.10;;;21.00;86.70;;;;;;5033397;28;20136;-85
2021/07/25 08:11:30;;;;;;;6.97;3.05;;;21.00;86.60;;;;;;5048608;28;20213;-84
2021/07/25 08:13:56;;;;;;;6.32;3.30;;;21.10;86.50;;;;;;5048946;28;20440;-85
2021/07/25 08:16:22;;;;;;;7.82;3.63;;;21.10;86.30;;;;;;5049037;28;20048;-84
2021/07/25 08:18:47;;;;;;;5.63;3.20;;;21.20;86.20;;;;;;5033041;28;20104;-85
2021/07/25 08:21:13;;;;;;;6.03;3.00;;;21.20;86.00;;;;;;5032617;28;20051;-85
2021/07/25 08:23:38;;;;;;;6.03;3.03;;;21.20;85.80;;;;;;5047853;28;20022;-85
2021/07/25 08:26:04;;;;;;;5.93;3.08;;;21.30;85.70;;;;;;5033231;28;20504;-84
2021/07/25 08:28:30;;;;;;;6.97;3.53;;;21.30;85.60;;;;;;5048042;28;20507;-82
2021/07/25 08:30:56;;;;;;;5.90;2.90;;;21.30;85.60;;;;;;5048573;28;20025;-84
2021/07/25 08:33:22;;;;;;;6.28;2.60;;;21.40;85.50;;;;;;5033463;28;20030;-85
2021/07/25 08:35:48;;;;;;;5.95;3.35;;;21.40;85.50;;;;;;5032848;28;20029;-84
2021/07/25 08:38:13;;;;;;;5.70;2.78;;;21.40;85.40;;;;;;5031990;28;20468;-85
2021/07/25 08:40:42;;;;;;;7.47;3.40;;;21.50;85.30;;;;;;5048579;28;20039;-83
2021/07/25 08:43:13;;;;;;;6.07;3.05;;;21.50;85.20;;;;;;5049087;28;20048;-84
2021/07/25 08:45:44;;;;;;;6.38;3.03;;;21.60;85.20;;;;;;5042268;28;20021;-84
2021/07/25 08:48:11;;;;;;;5.88;3.25;;;21.70;85.10;;;;;;5033533;28;20471;-84
2021/07/25 08:51:01;;;;;;;4.85;3.08;;;21.70;85.00;;;;;;5032825;28;20030;-84
2021/07/25 08:53:27;;;;;;;5.55;2.72;;;21.80;84.80;;;;;;5032518;28;20041;-84
2021/07/25 08:55:53;;;;;;;6.15;3.10;;;21.90;84.60;;;;;;5031982;28;20099;-84
2021/07/25 08:58:22;;;;;;;7.28;3.35;;;22.00;84.20;;;;;;5048482;28;20024;-84
2021/07/25 09:00:50;;;;;;;5.28;3.00;;;22.00;83.90;;;;;;5031167;28;20017;-84
2021/07/25 09:03:17;;;;;;;5.45;3.00;;;22.00;83.50;;;;;;5048019;28;20052;-85
2021/07/25 09:05:43;;;;;;;7.53;3.30;;;22.10;83.40;;;;;;5047266;28;20017;-84
2021/07/25 09:08:09;;;;;;;8.10;2.80;;;22.10;83.30;;;;;;5048320;28;20025;-85
2021/07/25 09:10:35;;;;;;;6.10;3.22;;;22.20;83.10;;;;;;5047496;28;20105;-84
2021/07/25 09:13:01;;;;;;;7.75;3.85;;;22.20;83.00;;;;;;5047728;28;20122;-85
2021/07/25 09:15:33;;;;;;;5.82;3.13;;;22.20;83.00;;;;;;5032860;28;20022;-85
2021/07/25 09:18:00;;;;;;;6.25;2.72;;;22.20;83.00;;;;;;5047967;28;20018;-85
2021/07/25 09:20:27;;;;;;;5.45;3.17;;;22.20;83.00;;;;;;5048113;28;20346;-84
2021/07/25 09:22:59;;;;;;;5.13;2.92;;;22.30;82.80;;;;;;5030643;28;20056;-84
2021/07/25 09:25:25;;;;;;;5.50;2.83;;;22.30;82.70;;;;;;5031615;28;20028;-85
2021/07/25 09:27:57;;;;;;;8.07;3.30;;;22.30;82.60;;;;;;5030868;28;20021;-84
2021/07/25 09:30:30;;;;;;;6.85;3.53;;;22.30;82.00;;;;;;5031418;28;20021;-84
2021/07/25 09:32:59;;;;;;;6.25;2.90;;;22.30;81.50;;;;;;5030791;28;20053;-84
2021/07/25 09:35:28;;;;;;;7.43;3.53;;;22.40;81.50;;;;;;5047868;28;20025;-85
2021/07/25 09:38:17;;;;;;;6.50;3.17;;;22.40;81.40;;;;;;5031981;28;20124;-84
2021/07/25 09:40:44;;;;;;;5.65;2.78;;;22.40;81.40;;;;;;5042791;28;20364;-83
2021/07/25 09:43:18;;;;;;;7.70;3.90;;;22.40;81.40;;;;;;5019983;28;20018;-83
2021/07/25 09:45:50;;;;;;;5.57;2.80;;;22.50;81.10;;;;;;5024242;28;20029;-80
2021/07/25 09:48:22;;;;;;;5.82;2.80;;;22.60;81.00;;;;;;5031183;28;20021;-83
2021/07/25 09:50:49;;;;;;;4.97;2.92;;;22.70;80.90;;;;;;5030502;28;20025;-84
2021/07/25 09:53:16;;;;;;;4.55;2.58;;;22.70;80.20;;;;;;5032932;28;20033;-84
2021/07/25 09:55:42;;;;;;;5.75;2.80;;;22.80;79.80;;;;;;5030950;28;20132;-83
2021/07/25 09:58:08;;;;;;;5.82;3.00;;;23.00;79.60;;;;;;5032783;28;20028;-84
2021/07/25 10:00:45;;;;;;;7.43;3.20;;;23.10;79.00;;;;;;5048253;28;20013;-82
2021/07/25 10:03:23;;;;;;;5.07;3.00;;;23.20;78.70;;;;;;5037783;28;20022;-84
2021/07/25 10:05:52;;;;;;;5.55;2.75;;;23.40;78.30;;;;;;5032386;28;20014;-84
2021/07/25 10:08:22;;;;;;;5.22;2.95;;;23.50;77.90;;;;;;5048822;28;20095;-84
2021/07/25 10:10:50;;;;;;;3.60;2.15;;;23.50;77.90;;;;;;5031553;28;20075;-83
2021/07/25 10:13:21;;;;;;;5.85;2.72;;;23.50;77.40;;;;;;5032020;28;20032;-84
2021/07/25 10:15:57;;;;;;;5.78;3.50;;;23.60;76.90;;;;;;5032005;28;20201;-84
2021/07/25 10:18:24;;;;;;;5.13;2.83;;;23.70;76.70;;;;;;5031027;28;20018;-84
2021/07/25 10:20:55;;;;;;;6.75;3.30;;;23.70;76.50;;;;;;5031680;28;20033;-85
2021/07/25 10:23:27;;;;;;;6.45;3.42;;;23.70;76.20;;;;;;5047805;28;20021;-84
2021/07/25 10:25:55;;;;;;;6.70;3.80;;;23.70;76.20;;;;;;5030102;28;20357;-84
2021/07/25 10:28:22;;;;;;;5.75;3.17;;;23.70;76.40;;;;;;5030947;28;20394;-83
2021/07/25 10:30:49;;;;;;;5.80;3.35;;;23.60;76.50;;;;;;5031333;28;20028;-83
2021/07/25 10:33:17;;;;;;;5.93;2.83;;;23.50;76.50;;;;;;5030685;28;20017;-83
2021/07/25 10:35:44;;;;;;;4.53;2.75;;;23.50;76.70;;;;;;5031382;28;20537;-83
2021/07/25 10:38:10;;;;;;;6.68;3.72;;;23.50;76.70;;;;;;5031967;28;20361;-83
2021/07/25 10:40:37;;;;;;;6.47;3.28;;;23.70;75.90;;;;;;5030945;28;20116;-85
2021/07/25 10:43:03;;;;;;;9.05;4.78;;;23.70;75.40;;;;;;5031859;28;20018;-84
2021/07/25 10:45:28;;;;;;;6.32;3.05;;;23.70;75.10;;;;;;5032085;28;20383;-85
2021/07/25 10:48:12;;;;;;;5.60;3.22;;;23.70;75.30;;;;;;5033120;28;20025;-84
2021/07/25 10:50:38;;;;;;;6.63;3.40;;;23.60;75.50;;;;;;5035489;28;20049;-85
2021/07/25 10:53:04;;;;;;;6.55;3.65;;;23.60;75.70;;;;;;5035996;28;20052;-84
2021/07/25 10:55:41;;;;;;;5.60;3.13;;;23.60;75.70;;;;;;5035396;28;20067;-84
2021/07/25 10:58:09;;;;;;;6.93;3.15;;;23.60;75.80;;;;;;5040868;28;20021;-85
2021/07/25 11:00:41;;;;;;;6.95;3.35;;;23.60;75.50;;;;;;5038670;28;20091;-84
2021/07/25 11:03:07;;;;;;;5.60;3.08;;;23.60;75.20;;;;;;5038000;28;20018;-84
2021/07/25 11:05:33;;;;;;;5.28;3.15;;;23.70;75.10;;;;;;5033805;28;20013;-83
2021/07/25 11:08:00;;;;;;;5.75;2.80;;;23.80;74.80;;;;;;5033190;28;20032;-83
2021/07/25 11:10:34;;;;;;;6.57;3.13;;;23.90;74.60;;;;;;5033968;28;20032;-83
2021/07/25 11:13:02;;;;;;;9.02;4.13;;;24.00;74.30;;;;;;5034654;28;20068;-84
2021/07/25 11:15:28;;;;;;;6.60;3.72;;;24.00;73.90;;;;;;5038532;28;20044;-83
2021/07/25 11:17:56;;;;;;;8.45;3.53;;;24.00;73.60;;;;;;5053672;28;20437;-84
2021/07/25 11:20:43;;;;;;;4.93;2.92;;;24.00;73.40;;;;;;5036530;28;20036;-83
2021/07/25 11:23:33;;;;;;;5.32;3.08;;;24.10;73.50;;;;;;5035064;28;20021;-84
2021/07/25 11:26:19;;;;;;;7.63;3.10;;;24.10;73.40;;;;;;5034341;28;20014;-83
2021/07/25 11:28:44;;;;;;;5.82;3.30;;;24.20;73.20;;;;;;5034106;28;20248;-82
2021/07/25 11:31:14;;;;;;;8.18;3.55;;;24.40;73.00;;;;;;5033299;28;20026;-83
2021/07/25 11:33:40;;;;;;;4.53;2.67;;;24.40;72.70;;;;;;5035009;28;20473;-83
2021/07/25 11:36:11;;;;;;;5.90;3.00;;;24.50;72.70;;;;;;5032765;28;20025;-83
2021/07/25 11:38:37;;;;;;;5.22;3.00;;;24.50;72.40;;;;;;5034768;28;20040;-83
2021/07/25 11:41:04;;;;;;;4.60;2.45;;;24.50;72.50;;;;;;5032690;28;20107;-83
2021/07/25 11:43:51;;;;;;;5.63;3.22;;;24.50;72.80;;;;;;5034555;28;20061;-83
2021/07/25 11:46:36;;;;;;;7.78;3.30;;;24.50;72.50;;;;;;5034662;28;20457;-83
2021/07/25 11:49:18;;;;;;;6.07;2.88;;;24.60;71.90;;;;;;5033605;28;20032;-83
2021/07/25 11:51:48;;;;;;;5.78;2.83;;;24.70;72.00;;;;;;5039141;28;20028;-80
2021/07/25 11:54:18;;;;;;;4.60;2.50;;;24.70;72.10;;;;;;5036564;28;20021;-84
2021/07/25 11:56:53;;;;;;;4.82;2.75;;;24.70;72.50;;;;;;5045940;28;20038;-80
2021/07/25 11:59:18;;;;;;;6.30;3.08;;;24.70;72.80;;;;;;5034517;28;20025;-84
2021/07/25 12:01:44;;;;;;;6.80;2.95;;;24.80;72.50;;;;;;5032777;28;20400;-79
2021/07/25 12:04:21;;;;;;;5.95;3.28;;;24.90;71.70;;;;;;5033999;28;20049;-84
2021/07/25 12:07:06;;;;;;;6.57;2.88;;;24.90;71.50;;;;;;5031871;28;20108;-84
2021/07/25 12:09:33;;;;;;;5.07;2.47;;;24.90;70.90;;;;;;5034147;28;20059;-85
2021/07/25 12:12:03;;;;;;;4.57;2.58;;;24.90;70.50;;;;;;5031002;28;20030;-86
2021/07/25 12:14:30;;;;;;;3.83;2.40;;;24.90;70.60;;;;;;5027944;28;20030;-83
2021/07/25 12:16:56;;;;;;;5.20;2.70;;;24.90;70.70;;;;;;5011593;28;20360;-84
2021/07/25 12:19:22;;;;;;;6.05;2.80;;;25.00;70.80;;;;;;5028762;28;20068;-85
2021/07/25 12:21:49;;;;;;;3.70;2.35;;;25.00;70.40;;;;;;5013234;28;20029;-84
2021/07/25 12:24:35;;;;;;;6.03;2.50;;;25.00;70.30;;;;;;5013596;28;20030;-84
2021/07/25 12:27:03;;;;;;;5.57;2.80;;;25.20;69.90;;;;;;5028017;28;20080;-84
2021/07/25 12:29:36;;;;;;;3.65;2.40;;;25.20;69.30;;;;;;5013862;28;20057;-84
2021/07/25 12:32:28;;;;;;;3.65;2.08;;;25.30;68.40;;;;;;5028615;28;20377;-84
2021/07/25 12:35:15;;;;;;;4.88;2.10;;;25.30;68.40;;;;;;5049201;28;20022;-84
2021/07/25 12:37:44;;;;;;;4.80;2.17;;;25.20;68.30;;;;;;5034173;28;20038;-84
2021/07/25 12:40:19;;;;;;;4.28;2.22;;;25.30;68.70;;;;;;5013295;28;20036;-82
2021/07/25 12:42:50;;;;;;;3.75;2.10;;;25.30;69.10;;;;;;5028470;28;20033;-83